sensor_id;sensor_type;location;lat;lon;timestamp;P1;durP1;ratioP1;P2;durP2;ratioP2
37409;SDS011;23275;48.914;12.566;2023-01-25T00:00:38;19.98;;;10.10;;
37409;SDS011;23275;48.914;12.566;2023-01-25T00:03:03;27.42;;;12.43;;
37409;SDS011;23275;48.914;12.566;2023-01-25T00:05:29;23.08;;;10.95;;
37409;SDS011;23275;48.914;12.566;2023-01-25T00:07:54;25.63;;;12.18;;
37409;SDS011;23275;48.914;12.566;2023-01-25T00:10:20;22.50;;;11.57;;
37409;SDS011;23275;48.914;12.566;2023-01-25T00:12:45;22.33;;;11.38;;
37409;SDS011;23275;48.914;12.566;2023-01-25T00:15:11;26.20;;;11.50;;
37409;SDS011;23275;48.914;12.566;2023-01-25T00:17:37;23.25;;;11.48;;
37409;SDS011;23275;48.914;12.566;2023-01-25T00:20:02;22.92;;;11.20;;
37409;SDS011;23275;48.914;12.566;2023-01-25T00:22:28;22.55;;;11.15;;
37409;SDS011;23275;48.914;12.566;2023-01-25T00:24:54;21.92;;;11.60;;
37409;SDS011;23275;48.914;12.566;2023-01-25T00:27:20;26.55;;;12.45;;
37409;SDS011;23275;48.914;12.566;2023-01-25T00:29:46;25.55;;;12.02;;
37409;SDS011;23275;48.914;12.566;2023-01-25T00:34:44;21.92;;;10.85;;
37409;SDS011;23275;48.914;12.566;2023-01-25T00:37:35;27.88;;;12.20;;
37409;SDS011;23275;48.914;12.566;2023-01-25T00:40:03;23.75;;;11.20;;
37409;SDS011;23275;48.914;12.566;2023-01-25T00:42:29;23.20;;;11.57;;
37409;SDS011;23275;48.914;12.566;2023-01-25T00:44:54;23.25;;;11.68;;
37409;SDS011;23275;48.914;12.566;2023-01-25T00:47:20;24.27;;;11.07;;
37409;SDS011;23275;48.914;12.566;2023-01-25T00:49:46;24.48;;;10.77;;
37409;SDS011;23275;48.914;12.566;2023-01-25T00:52:12;24.70;;;11.48;;
37409;SDS011;23275;48.914;12.566;2023-01-25T00:54:38;19.60;;;9.68;;
37409;SDS011;23275;48.914;12.566;2023-01-25T00:57:03;23.05;;;10.65;;
37409;SDS011;23275;48.914;12.566;2023-01-25T00:59:31;19.33;;;10.10;;
37409;SDS011;23275;48.914;12.566;2023-01-25T01:01:57;21.38;;;10.18;;
37409;SDS011;23275;48.914;12.566;2023-01-25T01:04:23;21.83;;;10.07;;
37409;SDS011;23275;48.914;12.566;2023-01-25T01:06:51;19.40;;;9.65;;
37409;SDS011;23275;48.914;12.566;2023-01-25T01:09:18;21.35;;;9.30;;
37409;SDS011;23275;48.914;12.566;2023-01-25T01:11:44;19.95;;;9.75;;
37409;SDS011;23275;48.914;12.566;2023-01-25T01:14:09;18.27;;;8.73;;
37409;SDS011;23275;48.914;12.566;2023-01-25T01:16:35;19.75;;;9.32;;
37409;SDS011;23275;48.914;12.566;2023-01-25T01:19:00;18.83;;;9.55;;
37409;SDS011;23275;48.914;12.566;2023-01-25T01:21:26;19.60;;;8.93;;
37409;SDS011;23275;48.914;12.566;2023-01-25T01:23:55;17.63;;;9.00;;
37409;SDS011;23275;48.914;12.566;2023-01-25T01:26:21;19.90;;;9.93;;
37409;SDS011;23275;48.914;12.566;2023-01-25T01:28:47;20.20;;;9.48;;
37409;SDS011;23275;48.914;12.566;2023-01-25T01:31:14;19.35;;;9.57;;
37409;SDS011;23275;48.914;12.566;2023-01-25T01:33:41;19.02;;;8.95;;
37409;SDS011;23275;48.914;12.566;2023-01-25T01:36:08;16.80;;;9.23;;
37409;SDS011;23275;48.914;12.566;2023-01-25T01:38:38;17.33;;;9.32;;
37409;SDS011;23275;48.914;12.566;2023-01-25T01:41:04;18.83;;;8.80;;
37409;SDS011;23275;48.914;12.566;2023-01-25T01:43:30;19.92;;;9.00;;
37409;SDS011;23275;48.914;12.566;2023-01-25T01:45:56;20.05;;;9.73;;
37409;SDS011;23275;48.914;12.566;2023-01-25T01:48:37;17.38;;;9.35;;
37409;SDS011;23275;48.914;12.566;2023-01-25T01:51:12;18.90;;;9.50;;
37409;SDS011;23275;48.914;12.566;2023-01-25T01:53:43;19.08;;;9.32;;
37409;SDS011;23275;48.914;12.566;2023-01-25T01:56:13;18.00;;;9.30;;
37409;SDS011;23275;48.914;12.566;2023-01-25T01:58:42;22.98;;;10.07;;
37409;SDS011;23275;48.914;12.566;2023-01-25T02:01:09;15.75;;;8.13;;
37409;SDS011;23275;48.914;12.566;2023-01-25T02:03:35;18.27;;;7.97;;
37409;SDS011;23275;48.914;12.566;2023-01-25T02:06:14;14.93;;;8.75;;
37409;SDS011;23275;48.914;12.566;2023-01-25T02:08:45;17.52;;;8.02;;
37409;SDS011;23275;48.914;12.566;2023-01-25T02:11:11;16.30;;;7.88;;
37409;SDS011;23275;48.914;12.566;2023-01-25T02:13:37;18.17;;;9.13;;
37409;SDS011;23275;48.914;12.566;2023-01-25T02:16:03;20.15;;;9.00;;
37409;SDS011;23275;48.914;12.566;2023-01-25T02:18:29;17.92;;;8.68;;
37409;SDS011;23275;48.914;12.566;2023-01-25T02:20:56;17.83;;;9.13;;
37409;SDS011;23275;48.914;12.566;2023-01-25T02:23:24;15.98;;;8.77;;
37409;SDS011;23275;48.914;12.566;2023-01-25T02:25:57;18.42;;;8.88;;
37409;SDS011;23275;48.914;12.566;2023-01-25T02:28:27;21.03;;;8.80;;
37409;SDS011;23275;48.914;12.566;2023-01-25T02:31:09;23.55;;;10.20;;
37409;SDS011;23275;48.914;12.566;2023-01-25T02:33:34;18.20;;;8.48;;
37409;SDS011;23275;48.914;12.566;2023-01-25T02:38:32;19.40;;;9.85;;
37409;SDS011;23275;48.914;12.566;2023-01-25T02:41:02;17.75;;;8.77;;
37409;SDS011;23275;48.914;12.566;2023-01-25T02:43:35;19.55;;;9.35;;
37409;SDS011;23275;48.914;12.566;2023-01-25T02:48:36;18.95;;;8.90;;
37409;SDS011;23275;48.914;12.566;2023-01-25T02:51:02;19.27;;;8.73;;
37409;SDS011;23275;48.914;12.566;2023-01-25T02:53:31;18.02;;;9.07;;
37409;SDS011;23275;48.914;12.566;2023-01-25T02:55:57;19.10;;;8.88;;
37409;SDS011;23275;48.914;12.566;2023-01-25T02:58:22;18.17;;;9.20;;
37409;SDS011;23275;48.914;12.566;2023-01-25T03:00:48;16.83;;;8.40;;
37409;SDS011;23275;48.914;12.566;2023-01-25T03:03:13;21.10;;;9.52;;
37409;SDS011;23275;48.914;12.566;2023-01-25T03:05:39;17.05;;;9.23;;
37409;SDS011;23275;48.914;12.566;2023-01-25T03:08:04;17.83;;;9.18;;
37409;SDS011;23275;48.914;12.566;2023-01-25T03:10:30;19.38;;;10.40;;
37409;SDS011;23275;48.914;12.566;2023-01-25T03:12:56;19.50;;;9.52;;
37409;SDS011;23275;48.914;12.566;2023-01-25T03:15:21;20.90;;;10.13;;
37409;SDS011;23275;48.914;12.566;2023-01-25T03:17:47;19.80;;;9.57;;
37409;SDS011;23275;48.914;12.566;2023-01-25T03:20:12;19.48;;;8.95;;
37409;SDS011;23275;48.914;12.566;2023-01-25T03:22:38;17.80;;;8.93;;
37409;SDS011;23275;48.914;12.566;2023-01-25T03:25:04;19.00;;;9.35;;
37409;SDS011;23275;48.914;12.566;2023-01-25T03:27:30;18.48;;;8.82;;
37409;SDS011;23275;48.914;12.566;2023-01-25T03:29:56;16.90;;;9.20;;
37409;SDS011;23275;48.914;12.566;2023-01-25T03:32:21;17.77;;;8.88;;
37409;SDS011;23275;48.914;12.566;2023-01-25T03:34:47;22.30;;;9.93;;
37409;SDS011;23275;48.914;12.566;2023-01-25T03:37:13;18.55;;;9.15;;
37409;SDS011;23275;48.914;12.566;2023-01-25T03:39:38;19.45;;;9.30;;
37409;SDS011;23275;48.914;12.566;2023-01-25T03:42:04;20.00;;;9.52;;
37409;SDS011;23275;48.914;12.566;2023-01-25T03:44:30;21.55;;;9.10;;
37409;SDS011;23275;48.914;12.566;2023-01-25T03:46:55;20.33;;;9.48;;
37409;SDS011;23275;48.914;12.566;2023-01-25T03:49:21;19.13;;;9.80;;
37409;SDS011;23275;48.914;12.566;2023-01-25T03:51:46;17.35;;;8.88;;
37409;SDS011;23275;48.914;12.566;2023-01-25T03:54:12;19.80;;;9.25;;
37409;SDS011;23275;48.914;12.566;2023-01-25T03:56:37;19.13;;;8.88;;
37409;SDS011;23275;48.914;12.566;2023-01-25T03:59:03;20.42;;;9.00;;
37409;SDS011;23275;48.914;12.566;2023-01-25T04:01:29;20.27;;;9.10;;
37409;SDS011;23275;48.914;12.566;2023-01-25T04:03:54;19.05;;;8.45;;
37409;SDS011;23275;48.914;12.566;2023-01-25T04:06:20;17.08;;;8.68;;
37409;SDS011;23275;48.914;12.566;2023-01-25T04:08:45;17.38;;;8.85;;
37409;SDS011;23275;48.914;12.566;2023-01-25T04:11:11;19.50;;;8.93;;
37409;SDS011;23275;48.914;12.566;2023-01-25T04:13:37;18.92;;;8.82;;
37409;SDS011;23275;48.914;12.566;2023-01-25T04:16:03;18.23;;;9.43;;
37409;SDS011;23275;48.914;12.566;2023-01-25T04:18:30;16.50;;;8.98;;
37409;SDS011;23275;48.914;12.566;2023-01-25T04:20:56;19.10;;;9.27;;
37409;SDS011;23275;48.914;12.566;2023-01-25T04:23:22;18.80;;;8.95;;
37409;SDS011;23275;48.914;12.566;2023-01-25T04:25:55;17.08;;;8.68;;
37409;SDS011;23275;48.914;12.566;2023-01-25T04:28:26;20.48;;;8.20;;
37409;SDS011;23275;48.914;12.566;2023-01-25T04:30:52;21.30;;;8.80;;
37409;SDS011;23275;48.914;12.566;2023-01-25T04:33:19;16.67;;;8.70;;
37409;SDS011;23275;48.914;12.566;2023-01-25T04:35:45;15.50;;;8.68;;
37409;SDS011;23275;48.914;12.566;2023-01-25T04:38:10;15.45;;;9.07;;
37409;SDS011;23275;48.914;12.566;2023-01-25T04:40:36;17.73;;;8.85;;
37409;SDS011;23275;48.914;12.566;2023-01-25T04:43:02;15.85;;;9.10;;
37409;SDS011;23275;48.914;12.566;2023-01-25T04:45:28;16.48;;;8.70;;
37409;SDS011;23275;48.914;12.566;2023-01-25T04:47:54;17.88;;;9.05;;
37409;SDS011;23275;48.914;12.566;2023-01-25T04:50:21;19.45;;;9.13;;
37409;SDS011;23275;48.914;12.566;2023-01-25T04:52:47;19.45;;;9.20;;
37409;SDS011;23275;48.914;12.566;2023-01-25T04:55:13;17.55;;;8.60;;
37409;SDS011;23275;48.914;12.566;2023-01-25T04:57:38;17.27;;;8.52;;
37409;SDS011;23275;48.914;12.566;2023-01-25T05:00:04;17.33;;;9.35;;
37409;SDS011;23275;48.914;12.566;2023-01-25T05:02:30;19.60;;;9.25;;
37409;SDS011;23275;48.914;12.566;2023-01-25T05:04:57;19.30;;;9.27;;
37409;SDS011;23275;48.914;12.566;2023-01-25T05:07:22;21.33;;;9.38;;
37409;SDS011;23275;48.914;12.566;2023-01-25T05:09:48;17.77;;;9.15;;
37409;SDS011;23275;48.914;12.566;2023-01-25T05:12:13;19.48;;;8.65;;
37409;SDS011;23275;48.914;12.566;2023-01-25T05:14:39;18.42;;;9.60;;
37409;SDS011;23275;48.914;12.566;2023-01-25T05:17:05;18.88;;;8.65;;
37409;SDS011;23275;48.914;12.566;2023-01-25T05:19:31;20.45;;;9.80;;
37409;SDS011;23275;48.914;12.566;2023-01-25T05:21:57;18.30;;;9.10;;
37409;SDS011;23275;48.914;12.566;2023-01-25T05:24:24;20.00;;;9.45;;
37409;SDS011;23275;48.914;12.566;2023-01-25T05:26:54;19.10;;;9.57;;
37409;SDS011;23275;48.914;12.566;2023-01-25T05:29:24;16.17;;;8.87;;
37409;SDS011;23275;48.914;12.566;2023-01-25T05:31:56;17.08;;;9.52;;
37409;SDS011;23275;48.914;12.566;2023-01-25T05:34:22;16.98;;;8.70;;
37409;SDS011;23275;48.914;12.566;2023-01-25T05:36:48;17.30;;;9.25;;
37409;SDS011;23275;48.914;12.566;2023-01-25T05:39:14;17.50;;;8.63;;
37409;SDS011;23275;48.914;12.566;2023-01-25T05:41:39;19.58;;;9.40;;
37409;SDS011;23275;48.914;12.566;2023-01-25T05:44:05;17.63;;;9.02;;
37409;SDS011;23275;48.914;12.566;2023-01-25T05:46:30;21.52;;;9.50;;
37409;SDS011;23275;48.914;12.566;2023-01-25T05:48:56;22.50;;;9.63;;
37409;SDS011;23275;48.914;12.566;2023-01-25T05:51:21;19.27;;;9.60;;
37409;SDS011;23275;48.914;12.566;2023-01-25T05:53:47;18.50;;;9.48;;
37409;SDS011;23275;48.914;12.566;2023-01-25T05:56:12;20.13;;;10.45;;
37409;SDS011;23275;48.914;12.566;2023-01-25T05:58:38;16.23;;;9.18;;
37409;SDS011;23275;48.914;12.566;2023-01-25T06:01:04;16.35;;;8.10;;
37409;SDS011;23275;48.914;12.566;2023-01-25T06:03:31;17.75;;;9.57;;
37409;SDS011;23275;48.914;12.566;2023-01-25T06:05:58;17.23;;;8.88;;
37409;SDS011;23275;48.914;12.566;2023-01-25T06:08:30;17.65;;;9.05;;
37409;SDS011;23275;48.914;12.566;2023-01-25T06:10:56;16.92;;;8.63;;
37409;SDS011;23275;48.914;12.566;2023-01-25T06:13:22;17.38;;;8.60;;
37409;SDS011;23275;48.914;12.566;2023-01-25T06:15:54;13.85;;;7.28;;
37409;SDS011;23275;48.914;12.566;2023-01-25T06:18:21;17.55;;;7.95;;
37409;SDS011;23275;48.914;12.566;2023-01-25T06:20:48;13.90;;;7.95;;
37409;SDS011;23275;48.914;12.566;2023-01-25T06:23:14;15.65;;;8.50;;
37409;SDS011;23275;48.914;12.566;2023-01-25T06:25:40;20.85;;;9.27;;
37409;SDS011;23275;48.914;12.566;2023-01-25T06:28:06;17.67;;;9.68;;
37409;SDS011;23275;48.914;12.566;2023-01-25T06:30:31;19.00;;;9.10;;
37409;SDS011;23275;48.914;12.566;2023-01-25T06:32:57;15.45;;;8.43;;
37409;SDS011;23275;48.914;12.566;2023-01-25T06:35:23;16.77;;;8.25;;
37409;SDS011;23275;48.914;12.566;2023-01-25T06:37:49;16.60;;;9.05;;
37409;SDS011;23275;48.914;12.566;2023-01-25T06:40:14;17.48;;;8.82;;
37409;SDS011;23275;48.914;12.566;2023-01-25T06:42:41;18.50;;;10.30;;
37409;SDS011;23275;48.914;12.566;2023-01-25T06:45:07;19.48;;;9.45;;
37409;SDS011;23275;48.914;12.566;2023-01-25T06:47:33;21.25;;;9.95;;
37409;SDS011;23275;48.914;12.566;2023-01-25T06:49:59;18.77;;;9.48;;
37409;SDS011;23275;48.914;12.566;2023-01-25T06:52:24;20.83;;;9.80;;
37409;SDS011;23275;48.914;12.566;2023-01-25T06:54:50;15.52;;;8.40;;
37409;SDS011;23275;48.914;12.566;2023-01-25T06:57:16;16.63;;;9.15;;
37409;SDS011;23275;48.914;12.566;2023-01-25T06:59:41;15.75;;;7.95;;
37409;SDS011;23275;48.914;12.566;2023-01-25T07:02:08;16.65;;;8.13;;
37409;SDS011;23275;48.914;12.566;2023-01-25T07:04:38;17.27;;;8.05;;
37409;SDS011;23275;48.914;12.566;2023-01-25T07:07:06;11.80;;;6.90;;
37409;SDS011;23275;48.914;12.566;2023-01-25T07:09:33;14.25;;;7.55;;
37409;SDS011;23275;48.914;12.566;2023-01-25T07:11:59;17.33;;;8.63;;
37409;SDS011;23275;48.914;12.566;2023-01-25T07:14:26;14.07;;;8.35;;
37409;SDS011;23275;48.914;12.566;2023-01-25T07:16:51;14.93;;;8.25;;
37409;SDS011;23275;48.914;12.566;2023-01-25T07:19:17;15.25;;;8.55;;
37409;SDS011;23275;48.914;12.566;2023-01-25T07:21:43;15.65;;;8.23;;
37409;SDS011;23275;48.914;12.566;2023-01-25T07:24:09;13.77;;;7.80;;
37409;SDS011;23275;48.914;12.566;2023-01-25T07:26:39;15.27;;;8.07;;
37409;SDS011;23275;48.914;12.566;2023-01-25T07:29:05;16.17;;;8.20;;
37409;SDS011;23275;48.914;12.566;2023-01-25T07:31:31;15.82;;;8.68;;
37409;SDS011;23275;48.914;12.566;2023-01-25T07:33:56;16.63;;;8.20;;
37409;SDS011;23275;48.914;12.566;2023-01-25T07:36:22;14.88;;;7.82;;
37409;SDS011;23275;48.914;12.566;2023-01-25T07:38:51;16.80;;;8.48;;
37409;SDS011;23275;48.914;12.566;2023-01-25T07:41:18;15.40;;;8.18;;
37409;SDS011;23275;48.914;12.566;2023-01-25T07:43:44;13.15;;;7.18;;
37409;SDS011;23275;48.914;12.566;2023-01-25T07:46:10;15.02;;;7.88;;
37409;SDS011;23275;48.914;12.566;2023-01-25T07:48:38;13.63;;;7.55;;
37409;SDS011;23275;48.914;12.566;2023-01-25T07:51:05;13.60;;;7.43;;
37409;SDS011;23275;48.914;12.566;2023-01-25T07:53:48;14.85;;;7.70;;
37409;SDS011;23275;48.914;12.566;2023-01-25T07:56:16;14.65;;;7.13;;
37409;SDS011;23275;48.914;12.566;2023-01-25T07:58:42;15.73;;;8.40;;
37409;SDS011;23275;48.914;12.566;2023-01-25T08:01:09;13.77;;;8.32;;
37409;SDS011;23275;48.914;12.566;2023-01-25T08:03:45;14.63;;;7.90;;
37409;SDS011;23275;48.914;12.566;2023-01-25T08:06:11;16.33;;;7.90;;
37409;SDS011;23275;48.914;12.566;2023-01-25T08:08:41;15.20;;;7.72;;
37409;SDS011;23275;48.914;12.566;2023-01-25T08:11:13;13.57;;;7.05;;
37409;SDS011;23275;48.914;12.566;2023-01-25T08:13:41;16.30;;;7.47;;
37409;SDS011;23275;48.914;12.566;2023-01-25T08:16:13;14.98;;;7.30;;
37409;SDS011;23275;48.914;12.566;2023-01-25T08:18:47;16.33;;;7.63;;
37409;SDS011;23275;48.914;12.566;2023-01-25T08:21:14;15.48;;;9.05;;
37409;SDS011;23275;48.914;12.566;2023-01-25T08:23:39;18.75;;;8.00;;
37409;SDS011;23275;48.914;12.566;2023-01-25T08:26:05;16.95;;;8.68;;
37409;SDS011;23275;48.914;12.566;2023-01-25T08:28:32;15.57;;;7.72;;
37409;SDS011;23275;48.914;12.566;2023-01-25T08:31:04;16.15;;;8.43;;
37409;SDS011;23275;48.914;12.566;2023-01-25T08:33:31;16.00;;;8.15;;
37409;SDS011;23275;48.914;12.566;2023-01-25T08:35:57;15.15;;;8.27;;
37409;SDS011;23275;48.914;12.566;2023-01-25T08:38:22;17.50;;;8.32;;
37409;SDS011;23275;48.914;12.566;2023-01-25T08:40:48;13.13;;;6.57;;
37409;SDS011;23275;48.914;12.566;2023-01-25T08:43:14;14.70;;;7.72;;
37409;SDS011;23275;48.914;12.566;2023-01-25T08:45:39;15.43;;;7.82;;
37409;SDS011;23275;48.914;12.566;2023-01-25T08:48:05;13.25;;;7.50;;
37409;SDS011;23275;48.914;12.566;2023-01-25T08:50:30;11.73;;;6.50;;
37409;SDS011;23275;48.914;12.566;2023-01-25T08:52:56;14.70;;;7.05;;
37409;SDS011;23275;48.914;12.566;2023-01-25T08:55:21;12.13;;;6.78;;
37409;SDS011;23275;48.914;12.566;2023-01-25T08:57:47;12.55;;;7.13;;
37409;SDS011;23275;48.914;12.566;2023-01-25T09:00:13;12.10;;;6.60;;
37409;SDS011;23275;48.914;12.566;2023-01-25T09:02:39;14.10;;;7.05;;
37409;SDS011;23275;48.914;12.566;2023-01-25T09:05:05;12.73;;;6.60;;
37409;SDS011;23275;48.914;12.566;2023-01-25T09:07:30;13.98;;;6.80;;
37409;SDS011;23275;48.914;12.566;2023-01-25T09:09:56;13.10;;;6.45;;
37409;SDS011;23275;48.914;12.566;2023-01-25T09:12:22;15.18;;;7.78;;
37409;SDS011;23275;48.914;12.566;2023-01-25T09:14:47;16.98;;;8.20;;
37409;SDS011;23275;48.914;12.566;2023-01-25T09:17:13;14.25;;;7.47;;
37409;SDS011;23275;48.914;12.566;2023-01-25T09:19:38;13.73;;;7.47;;
37409;SDS011;23275;48.914;12.566;2023-01-25T09:22:06;12.55;;;7.05;;
37409;SDS011;23275;48.914;12.566;2023-01-25T09:24:32;15.82;;;7.75;;
37409;SDS011;23275;48.914;12.566;2023-01-25T09:26:58;13.63;;;7.25;;
37409;SDS011;23275;48.914;12.566;2023-01-25T09:29:24;13.10;;;7.38;;
37409;SDS011;23275;48.914;12.566;2023-01-25T09:31:50;14.27;;;7.57;;
37409;SDS011;23275;48.914;12.566;2023-01-25T09:34:16;14.13;;;7.75;;
37409;SDS011;23275;48.914;12.566;2023-01-25T09:36:42;12.93;;;7.20;;
37409;SDS011;23275;48.914;12.566;2023-01-25T09:39:08;11.02;;;6.22;;
37409;SDS011;23275;48.914;12.566;2023-01-25T09:49:59;12.68;;;7.05;;
37409;SDS011;23275;48.914;12.566;2023-01-25T09:55:28;14.80;;;6.80;;
37409;SDS011;23275;48.914;12.566;2023-01-25T09:57:55;15.35;;;7.75;;
37409;SDS011;23275;48.914;12.566;2023-01-25T10:02:57;12.70;;;7.25;;
37409;SDS011;23275;48.914;12.566;2023-01-25T10:05:44;13.00;;;6.50;;
37409;SDS011;23275;48.914;12.566;2023-01-25T10:11:27;12.88;;;6.95;;
37409;SDS011;23275;48.914;12.566;2023-01-25T10:13:55;13.68;;;7.57;;
37409;SDS011;23275;48.914;12.566;2023-01-25T10:16:23;14.18;;;7.15;;
37409;SDS011;23275;48.914;12.566;2023-01-25T10:19:13;15.18;;;7.95;;
37409;SDS011;23275;48.914;12.566;2023-01-25T10:27:25;14.75;;;7.43;;
37409;SDS011;23275;48.914;12.566;2023-01-25T10:32:29;14.32;;;6.93;;
37409;SDS011;23275;48.914;12.566;2023-01-25T10:34:59;14.05;;;7.78;;
37409;SDS011;23275;48.914;12.566;2023-01-25T10:40:14;14.93;;;7.85;;
37409;SDS011;23275;48.914;12.566;2023-01-25T10:42:47;13.40;;;7.53;;
37409;SDS011;23275;48.914;12.566;2023-01-25T10:45:20;13.88;;;8.13;;
37409;SDS011;23275;48.914;12.566;2023-01-25T10:47:47;16.05;;;8.95;;
37409;SDS011;23275;48.914;12.566;2023-01-25T10:58:44;16.83;;;8.05;;
37409;SDS011;23275;48.914;12.566;2023-01-25T11:01:13;13.90;;;8.20;;
37409;SDS011;23275;48.914;12.566;2023-01-25T11:03:52;15.98;;;7.57;;
37409;SDS011;23275;48.914;12.566;2023-01-25T11:06:29;14.55;;;8.07;;
37409;SDS011;23275;48.914;12.566;2023-01-25T11:08:56;14.30;;;7.68;;
37409;SDS011;23275;48.914;12.566;2023-01-25T11:13:56;16.38;;;9.57;;
37409;SDS011;23275;48.914;12.566;2023-01-25T11:16:33;15.98;;;8.57;;
37409;SDS011;23275;48.914;12.566;2023-01-25T11:19:01;17.27;;;8.63;;
37409;SDS011;23275;48.914;12.566;2023-01-25T11:21:31;19.17;;;9.23;;
37409;SDS011;23275;48.914;12.566;2023-01-25T11:26:28;15.27;;;8.55;;
37409;SDS011;23275;48.914;12.566;2023-01-25T11:29:05;17.15;;;8.55;;
37409;SDS011;23275;48.914;12.566;2023-01-25T11:31:40;17.65;;;9.45;;
37409;SDS011;23275;48.914;12.566;2023-01-25T11:34:17;17.83;;;9.57;;
37409;SDS011;23275;48.914;12.566;2023-01-25T11:45:34;15.48;;;8.00;;
37409;SDS011;23275;48.914;12.566;2023-01-25T11:50:37;15.48;;;8.25;;
37409;SDS011;23275;48.914;12.566;2023-01-25T12:01:30;17.60;;;9.32;;
37409;SDS011;23275;48.914;12.566;2023-01-25T12:07:03;16.95;;;9.05;;
37409;SDS011;23275;48.914;12.566;2023-01-25T12:10:11;18.73;;;8.57;;
37409;SDS011;23275;48.914;12.566;2023-01-25T12:12:44;16.30;;;8.93;;
37409;SDS011;23275;48.914;12.566;2023-01-25T12:21:02;18.48;;;9.18;;
37409;SDS011;23275;48.914;12.566;2023-01-25T12:26:34;15.52;;;9.00;;
37409;SDS011;23275;48.914;12.566;2023-01-25T12:29:34;19.58;;;9.43;;
37409;SDS011;23275;48.914;12.566;2023-01-25T12:32:33;21.42;;;10.20;;
37409;SDS011;23275;48.914;12.566;2023-01-25T12:37:55;16.55;;;8.50;;
37409;SDS011;23275;48.914;12.566;2023-01-25T12:43:32;16.45;;;8.45;;
37409;SDS011;23275;48.914;12.566;2023-01-25T12:46:06;15.00;;;8.38;;
37409;SDS011;23275;48.914;12.566;2023-01-25T12:48:49;18.17;;;9.23;;
37409;SDS011;23275;48.914;12.566;2023-01-25T12:51:17;16.92;;;9.13;;
37409;SDS011;23275;48.914;12.566;2023-01-25T12:53:46;16.70;;;7.82;;
37409;SDS011;23275;48.914;12.566;2023-01-25T12:56:25;16.48;;;8.07;;
37409;SDS011;23275;48.914;12.566;2023-01-25T13:02:16;15.63;;;8.70;;
37409;SDS011;23275;48.914;12.566;2023-01-25T13:05:07;15.75;;;7.95;;
37409;SDS011;23275;48.914;12.566;2023-01-25T13:08:38;17.42;;;7.53;;
37409;SDS011;23275;48.914;12.566;2023-01-25T13:11:00;17.73;;;8.05;;
37409;SDS011;23275;48.914;12.566;2023-01-25T13:13:27;15.88;;;7.90;;
37409;SDS011;23275;48.914;12.566;2023-01-25T13:15:53;15.13;;;7.82;;
37409;SDS011;23275;48.914;12.566;2023-01-25T13:20:59;15.02;;;6.90;;
37409;SDS011;23275;48.914;12.566;2023-01-25T13:23:31;17.42;;;7.43;;
37409;SDS011;23275;48.914;12.566;2023-01-25T13:28:45;14.23;;;7.18;;
37409;SDS011;23275;48.914;12.566;2023-01-25T13:37:20;14.02;;;7.38;;
37409;SDS011;23275;48.914;12.566;2023-01-25T13:40:01;12.02;;;5.80;;
37409;SDS011;23275;48.914;12.566;2023-01-25T13:42:30;13.73;;;6.45;;
37409;SDS011;23275;48.914;12.566;2023-01-25T13:45:19;13.93;;;6.72;;
37409;SDS011;23275;48.914;12.566;2023-01-25T13:47:57;13.75;;;6.95;;
37409;SDS011;23275;48.914;12.566;2023-01-25T13:50:28;11.68;;;6.38;;
37409;SDS011;23275;48.914;12.566;2023-01-25T13:52:59;14.35;;;5.82;;
37409;SDS011;23275;48.914;12.566;2023-01-25T13:55:49;12.90;;;6.28;;
37409;SDS011;23275;48.914;12.566;2023-01-25T14:03:29;13.18;;;7.05;;
37409;SDS011;23275;48.914;12.566;2023-01-25T14:05:59;12.43;;;6.97;;
37409;SDS011;23275;48.914;12.566;2023-01-25T14:08:30;14.00;;;6.78;;
37409;SDS011;23275;48.914;12.566;2023-01-25T14:10:56;14.63;;;7.25;;
37409;SDS011;23275;48.914;12.566;2023-01-25T14:13:22;14.35;;;6.90;;
37409;SDS011;23275;48.914;12.566;2023-01-25T14:15:58;14.27;;;7.05;;
37409;SDS011;23275;48.914;12.566;2023-01-25T14:18:26;13.13;;;6.95;;
37409;SDS011;23275;48.914;12.566;2023-01-25T14:21:07;14.20;;;6.82;;
37409;SDS011;23275;48.914;12.566;2023-01-25T14:23:34;14.73;;;7.32;;
37409;SDS011;23275;48.914;12.566;2023-01-25T14:26:00;11.73;;;7.03;;
37409;SDS011;23275;48.914;12.566;2023-01-25T14:28:26;12.98;;;6.95;;
37409;SDS011;23275;48.914;12.566;2023-01-25T14:30:57;12.90;;;6.43;;
37409;SDS011;23275;48.914;12.566;2023-01-25T14:33:31;13.57;;;6.93;;
37409;SDS011;23275;48.914;12.566;2023-01-25T14:36:04;12.70;;;6.70;;
37409;SDS011;23275;48.914;12.566;2023-01-25T14:38:37;15.38;;;7.45;;
37409;SDS011;23275;48.914;12.566;2023-01-25T14:41:06;12.95;;;6.68;;
37409;SDS011;23275;48.914;12.566;2023-01-25T14:43:52;14.25;;;7.38;;
37409;SDS011;23275;48.914;12.566;2023-01-25T14:46:21;20.02;;;10.43;;
37409;SDS011;23275;48.914;12.566;2023-01-25T14:49:04;15.98;;;7.20;;
37409;SDS011;23275;48.914;12.566;2023-01-25T14:51:31;12.00;;;6.50;;
37409;SDS011;23275;48.914;12.566;2023-01-25T14:53:58;12.77;;;6.63;;
37409;SDS011;23275;48.914;12.566;2023-01-25T14:56:46;13.93;;;6.97;;
37409;SDS011;23275;48.914;12.566;2023-01-25T14:59:18;13.57;;;6.95;;
37409;SDS011;23275;48.914;12.566;2023-01-25T15:01:50;13.35;;;6.40;;
37409;SDS011;23275;48.914;12.566;2023-01-25T15:04:18;13.32;;;7.38;;
37409;SDS011;23275;48.914;12.566;2023-01-25T15:06:44;12.95;;;6.53;;
37409;SDS011;23275;48.914;12.566;2023-01-25T15:12:00;13.65;;;6.57;;
37409;SDS011;23275;48.914;12.566;2023-01-25T15:14:51;13.75;;;7.15;;
37409;SDS011;23275;48.914;12.566;2023-01-25T15:25:54;16.42;;;6.82;;
37409;SDS011;23275;48.914;12.566;2023-01-25T15:28:25;13.85;;;6.72;;
37409;SDS011;23275;48.914;12.566;2023-01-25T15:30:52;12.23;;;6.75;;
37409;SDS011;23275;48.914;12.566;2023-01-25T15:33:22;14.38;;;7.47;;
37409;SDS011;23275;48.914;12.566;2023-01-25T15:35:50;12.35;;;6.55;;
37409;SDS011;23275;48.914;12.566;2023-01-25T15:38:16;14.20;;;6.85;;
37409;SDS011;23275;48.914;12.566;2023-01-25T15:40:42;14.20;;;7.20;;
37409;SDS011;23275;48.914;12.566;2023-01-25T15:43:09;13.13;;;7.13;;
37409;SDS011;23275;48.914;12.566;2023-01-25T15:45:35;15.05;;;7.32;;
37409;SDS011;23275;48.914;12.566;2023-01-25T15:48:01;11.82;;;6.80;;
37409;SDS011;23275;48.914;12.566;2023-01-25T15:50:28;17.95;;;7.72;;
37409;SDS011;23275;48.914;12.566;2023-01-25T15:52:54;12.35;;;6.20;;
37409;SDS011;23275;48.914;12.566;2023-01-25T15:55:19;12.95;;;6.50;;
37409;SDS011;23275;48.914;12.566;2023-01-25T15:57:45;17.92;;;8.48;;
37409;SDS011;23275;48.914;12.566;2023-01-25T16:00:14;14.40;;;6.90;;
37409;SDS011;23275;48.914;12.566;2023-01-25T16:02:41;16.85;;;8.40;;
37409;SDS011;23275;48.914;12.566;2023-01-25T16:05:16;18.38;;;8.63;;
37409;SDS011;23275;48.914;12.566;2023-01-25T16:07:42;13.57;;;7.50;;
37409;SDS011;23275;48.914;12.566;2023-01-25T16:10:20;17.65;;;7.53;;
37409;SDS011;23275;48.914;12.566;2023-01-25T16:12:48;16.35;;;8.50;;
37409;SDS011;23275;48.914;12.566;2023-01-25T16:15:14;14.90;;;7.82;;
37409;SDS011;23275;48.914;12.566;2023-01-25T16:17:40;14.93;;;8.15;;
37409;SDS011;23275;48.914;12.566;2023-01-25T16:20:06;15.50;;;8.50;;
37409;SDS011;23275;48.914;12.566;2023-01-25T16:22:39;18.55;;;8.52;;
37409;SDS011;23275;48.914;12.566;2023-01-25T16:25:05;16.88;;;8.25;;
37409;SDS011;23275;48.914;12.566;2023-01-25T16:27:32;18.05;;;8.80;;